sensor_id;sensor_type;location;lat;lon;timestamp;pressure;altitude;pressure_sealevel;temperature;humidity
30598;BME280;17365;48.878;8.334;2022-12-31T00:01:02;99759.75;;;14.69;91.41
30598;BME280;17365;48.878;8.334;2022-12-31T00:03:27;99764.94;;;14.70;91.25
30598;BME280;17365;48.878;8.334;2022-12-31T00:05:53;99754.59;;;14.66;91.91
30598;BME280;17365;48.878;8.334;2022-12-31T00:08:18;99798.84;;;14.73;90.55
30598;BME280;17365;48.878;8.334;2022-12-31T00:10:43;99775.31;;;14.75;90.39
30598;BME280;17365;48.878;8.334;2022-12-31T00:13:10;99782.34;;;14.70;91.22
30598;BME280;17365;48.878;8.334;2022-12-31T00:15:36;99779.81;;;14.67;92.30
30598;BME280;17365;48.878;8.334;2022-12-31T00:18:01;99786.00;;;14.63;92.06
30598;BME280;17365;48.878;8.334;2022-12-31T00:20:26;99797.34;;;14.62;92.67
30598;BME280;17365;48.878;8.334;2022-12-31T00:22:51;99789.41;;;14.66;92.38
30598;BME280;17365;48.878;8.334;2022-12-31T00:25:17;99789.53;;;14.59;93.84
30598;BME280;17365;48.878;8.334;2022-12-31T00:27:42;99779.91;;;14.61;93.54
30598;BME280;17365;48.878;8.334;2022-12-31T00:30:08;99786.09;;;14.56;93.57
30598;BME280;17365;48.878;8.334;2022-12-31T00:32:34;99779.09;;;14.59;93.79
30598;BME280;17365;48.878;8.334;2022-12-31T00:34:59;99786.88;;;14.62;92.49
30598;BME280;17365;48.878;8.334;2022-12-31T00:37:24;99798.91;;;14.69;92.09
30598;BME280;17365;48.878;8.334;2022-12-31T00:39:49;99811.91;;;14.72;91.21
30598;BME280;17365;48.878;8.334;2022-12-31T00:42:15;99786.75;;;14.68;91.48
30598;BME280;17365;48.878;8.334;2022-12-31T00:44:40;99805.84;;;14.70;90.99
30598;BME280;17365;48.878;8.334;2022-12-31T00:47:05;99796.13;;;14.78;89.87
30598;BME280;17365;48.878;8.334;2022-12-31T00:49:30;99797.81;;;14.80;89.47
30598;BME280;17365;48.878;8.334;2022-12-31T00:51:56;99800.41;;;14.80;89.23
30598;BME280;17365;48.878;8.334;2022-12-31T00:54:21;99815.94;;;14.88;88.82
30598;BME280;17365;48.878;8.334;2022-12-31T00:56:46;99820.34;;;14.86;87.98
30598;BME280;17365;48.878;8.334;2022-12-31T00:59:11;99823.75;;;14.90;88.90
30598;BME280;17365;48.878;8.334;2022-12-31T01:01:38;99842.06;;;14.88;89.08
30598;BME280;17365;48.878;8.334;2022-12-31T01:04:09;99833.50;;;14.80;90.99
30598;BME280;17365;48.878;8.334;2022-12-31T01:06:35;99826.03;;;14.63;93.11
30598;BME280;17365;48.878;8.334;2022-12-31T01:09:01;99819.88;;;14.66;92.84
30598;BME280;17365;48.878;8.334;2022-12-31T01:11:26;99828.72;;;14.57;93.08
30598;BME280;17365;48.878;8.334;2022-12-31T01:16:28;99838.66;;;14.83;89.49
30598;BME280;17365;48.878;8.334;2022-12-31T01:18:54;99850.06;;;14.79;88.50
30598;BME280;17365;48.878;8.334;2022-12-31T01:21:19;99849.06;;;14.86;87.78
30598;BME280;17365;48.878;8.334;2022-12-31T01:23:45;99837.47;;;14.99;85.55
30598;BME280;17365;48.878;8.334;2022-12-31T01:26:13;99833.38;;;14.88;85.96
30598;BME280;17365;48.878;8.334;2022-12-31T01:28:38;99838.63;;;14.86;85.23
30598;BME280;17365;48.878;8.334;2022-12-31T01:31:09;99844.56;;;14.93;83.79
30598;BME280;17365;48.878;8.334;2022-12-31T01:33:35;99857.53;;;14.97;82.94
30598;BME280;17365;48.878;8.334;2022-12-31T01:36:10;99839.03;;;15.08;81.39
30598;BME280;17365;48.878;8.334;2022-12-31T01:38:36;99850.25;;;15.13;80.63
30598;BME280;17365;48.878;8.334;2022-12-31T01:41:02;99847.44;;;15.22;79.79
30598;BME280;17365;48.878;8.334;2022-12-31T01:46:06;99871.91;;;15.20;79.53
30598;BME280;17365;48.878;8.334;2022-12-31T01:48:32;99851.84;;;15.20;79.22
30598;BME280;17365;48.878;8.334;2022-12-31T01:50:57;99865.81;;;15.19;79.55
30598;BME280;17365;48.878;8.334;2022-12-31T01:53:23;99868.34;;;15.22;79.81
30598;BME280;17365;48.878;8.334;2022-12-31T01:55:53;99858.88;;;15.18;79.85
30598;BME280;17365;48.878;8.334;2022-12-31T01:58:26;99854.34;;;15.25;79.05
30598;BME280;17365;48.878;8.334;2022-12-31T02:00:54;99862.03;;;15.32;78.82
30598;BME280;17365;48.878;8.334;2022-12-31T02:03:22;99869.16;;;15.24;79.19
30598;BME280;17365;48.878;8.334;2022-12-31T02:06:28;99864.06;;;15.20;79.02
30598;BME280;17365;48.878;8.334;2022-12-31T02:08:56;99857.94;;;15.21;78.80
30598;BME280;17365;48.878;8.334;2022-12-31T02:13:47;99867.19;;;15.35;77.27
30598;BME280;17365;48.878;8.334;2022-12-31T02:17:08;99863.72;;;15.35;77.10
30598;BME280;17365;48.878;8.334;2022-12-31T02:24:55;99875.09;;;15.32;77.52
30598;BME280;17365;48.878;8.334;2022-12-31T02:27:59;99857.59;;;15.36;77.26
30598;BME280;17365;48.878;8.334;2022-12-31T02:30:29;99879.25;;;15.42;76.93
30598;BME280;17365;48.878;8.334;2022-12-31T02:33:14;99864.34;;;15.46;76.98
30598;BME280;17365;48.878;8.334;2022-12-31T02:35:51;99878.22;;;15.48;76.47
30598;BME280;17365;48.878;8.334;2022-12-31T02:38:27;99856.63;;;15.41;77.19
30598;BME280;17365;48.878;8.334;2022-12-31T02:40:57;99858.13;;;15.50;77.34
30598;BME280;17365;48.878;8.334;2022-12-31T02:43:23;99868.72;;;15.46;77.14
30598;BME280;17365;48.878;8.334;2022-12-31T02:51:50;99875.34;;;15.62;76.78
30598;BME280;17365;48.878;8.334;2022-12-31T02:54:28;99860.38;;;15.68;76.81
30598;BME280;17365;48.878;8.334;2022-12-31T02:57:04;99840.38;;;15.67;76.62
30598;BME280;17365;48.878;8.334;2022-12-31T03:02:29;99855.69;;;15.83;75.92
30598;BME280;17365;48.878;8.334;2022-12-31T03:04:59;99859.97;;;15.85;75.96
30598;BME280;17365;48.878;8.334;2022-12-31T03:07:28;99855.63;;;15.86;75.76
30598;BME280;17365;48.878;8.334;2022-12-31T03:09:54;99874.75;;;15.88;76.04
30598;BME280;17365;48.878;8.334;2022-12-31T03:12:22;99871.09;;;15.95;76.16
30598;BME280;17365;48.878;8.334;2022-12-31T03:15:09;99886.09;;;15.88;76.84
30598;BME280;17365;48.878;8.334;2022-12-31T03:20:13;99879.22;;;15.83;77.99
30598;BME280;17365;48.878;8.334;2022-12-31T03:22:57;99881.47;;;15.99;77.29
30598;BME280;17365;48.878;8.334;2022-12-31T03:25:22;99872.72;;;16.00;77.53
30598;BME280;17365;48.878;8.334;2022-12-31T03:28:05;99876.97;;;16.05;77.23
30598;BME280;17365;48.878;8.334;2022-12-31T03:30:32;99884.84;;;16.03;77.44
30598;BME280;17365;48.878;8.334;2022-12-31T03:32:59;99888.28;;;16.05;77.39
30598;BME280;17365;48.878;8.334;2022-12-31T03:35:26;99869.88;;;16.08;76.97
30598;BME280;17365;48.878;8.334;2022-12-31T03:37:52;99876.06;;;16.06;76.81
30598;BME280;17365;48.878;8.334;2022-12-31T03:40:19;99884.53;;;16.15;76.12
30598;BME280;17365;48.878;8.334;2022-12-31T03:42:45;99879.28;;;16.17;75.72
30598;BME280;17365;48.878;8.334;2022-12-31T03:45:11;99882.72;;;16.19;75.47
30598;BME280;17365;48.878;8.334;2022-12-31T03:47:37;99876.59;;;16.20;75.87
30598;BME280;17365;48.878;8.334;2022-12-31T03:50:04;99879.44;;;16.11;76.38
30598;BME280;17365;48.878;8.334;2022-12-31T03:52:29;99900.00;;;16.26;75.52
30598;BME280;17365;48.878;8.334;2022-12-31T03:54:54;99888.78;;;16.21;76.61
30598;BME280;17365;48.878;8.334;2022-12-31T03:57:20;99881.66;;;16.26;76.19
30598;BME280;17365;48.878;8.334;2022-12-31T03:59:45;99880.75;;;16.27;76.11
30598;BME280;17365;48.878;8.334;2022-12-31T04:02:11;99862.66;;;16.18;76.94
30598;BME280;17365;48.878;8.334;2022-12-31T04:04:36;99863.25;;;16.29;75.98
30598;BME280;17365;48.878;8.334;2022-12-31T04:07:01;99876.56;;;16.21;76.47
30598;BME280;17365;48.878;8.334;2022-12-31T04:09:27;99890.19;;;16.34;75.88
30598;BME280;17365;48.878;8.334;2022-12-31T04:11:52;99865.81;;;16.30;76.33
30598;BME280;17365;48.878;8.334;2022-12-31T04:14:17;99876.38;;;16.27;76.63
30598;BME280;17365;48.878;8.334;2022-12-31T04:16:43;99880.63;;;16.33;76.03
30598;BME280;17365;48.878;8.334;2022-12-31T04:19:09;99879.03;;;16.26;76.47
30598;BME280;17365;48.878;8.334;2022-12-31T04:21:34;99875.63;;;16.24;76.50
30598;BME280;17365;48.878;8.334;2022-12-31T04:24:00;99883.34;;;16.28;76.18
30598;BME280;17365;48.878;8.334;2022-12-31T04:26:26;99853.88;;;16.22;76.54
30598;BME280;17365;48.878;8.334;2022-12-31T04:28:51;99867.13;;;16.14;76.89
30598;BME280;17365;48.878;8.334;2022-12-31T04:31:16;99874.13;;;16.14;76.96
30598;BME280;17365;48.878;8.334;2022-12-31T04:33:41;99881.16;;;16.12;77.13
30598;BME280;17365;48.878;8.334;2022-12-31T04:36:07;99896.81;;;16.13;76.75
30598;BME280;17365;48.878;8.334;2022-12-31T04:38:33;99902.72;;;16.21;76.49
30598;BME280;17365;48.878;8.334;2022-12-31T04:40:59;99880.06;;;16.20;76.47
30598;BME280;17365;48.878;8.334;2022-12-31T04:43:52;99868.75;;;16.18;76.73
30598;BME280;17365;48.878;8.334;2022-12-31T04:46:20;99882.78;;;16.16;76.95
30598;BME280;17365;48.878;8.334;2022-12-31T04:48:46;99916.00;;;16.14;77.32
30598;BME280;17365;48.878;8.334;2022-12-31T04:51:12;99903.50;;;16.25;76.77
30598;BME280;17365;48.878;8.334;2022-12-31T04:53:37;99914.97;;;16.19;77.14
30598;BME280;17365;48.878;8.334;2022-12-31T04:56:03;99915.81;;;16.21;77.03
30598;BME280;17365;48.878;8.334;2022-12-31T04:58:29;99916.72;;;16.19;77.47
30598;BME280;17365;48.878;8.334;2022-12-31T05:00:55;99921.19;;;16.15;77.62
30598;BME280;17365;48.878;8.334;2022-12-31T05:03:22;99907.16;;;16.18;77.66
30598;BME280;17365;48.878;8.334;2022-12-31T05:05:48;99920.28;;;16.16;77.79
30598;BME280;17365;48.878;8.334;2022-12-31T05:08:15;99924.75;;;16.13;78.23
30598;BME280;17365;48.878;8.334;2022-12-31T05:10:46;99920.44;;;16.10;78.27
30598;BME280;17365;48.878;8.334;2022-12-31T05:13:13;99916.81;;;16.16;78.00
30598;BME280;17365;48.878;8.334;2022-12-31T05:15:39;99924.59;;;16.19;77.20
30598;BME280;17365;48.878;8.334;2022-12-31T05:18:05;99912.44;;;16.16;77.71
30598;BME280;17365;48.878;8.334;2022-12-31T05:20:30;99924.69;;;16.14;77.32
30598;BME280;17365;48.878;8.334;2022-12-31T05:22:56;99914.28;;;16.13;77.08
30598;BME280;17365;48.878;8.334;2022-12-31T05:25:21;99922.09;;;16.14;76.59
30598;BME280;17365;48.878;8.334;2022-12-31T05:27:46;99921.00;;;16.23;75.97
30598;BME280;17365;48.878;8.334;2022-12-31T05:30:12;99925.53;;;16.16;76.49
30598;BME280;17365;48.878;8.334;2022-12-31T05:32:37;99934.34;;;16.12;76.79
30598;BME280;17365;48.878;8.334;2022-12-31T05:35:03;99929.13;;;16.12;76.73
30598;BME280;17365;48.878;8.334;2022-12-31T05:37:29;99933.16;;;16.25;75.42
30598;BME280;17365;48.878;8.334;2022-12-31T05:39:54;99940.09;;;16.26;75.50
30598;BME280;17365;48.878;8.334;2022-12-31T05:42:20;99940.97;;;16.27;75.58
30598;BME280;17365;48.878;8.334;2022-12-31T05:44:46;99948.09;;;16.22;75.48
30598;BME280;17365;48.878;8.334;2022-12-31T05:47:11;99944.59;;;16.21;75.55
30598;BME280;17365;48.878;8.334;2022-12-31T05:49:37;99955.00;;;16.24;75.47
30598;BME280;17365;48.878;8.334;2022-12-31T05:52:03;99952.34;;;16.26;75.55
30598;BME280;17365;48.878;8.334;2022-12-31T05:54:28;99965.69;;;16.15;75.96
30598;BME280;17365;48.878;8.334;2022-12-31T05:56:53;99956.19;;;16.11;75.72
30598;BME280;17365;48.878;8.334;2022-12-31T05:59:19;99967.47;;;16.13;76.15
30598;BME280;17365;48.878;8.334;2022-12-31T06:01:44;99951.91;;;16.09;76.06
30598;BME280;17365;48.878;8.334;2022-12-31T06:04:09;99954.75;;;15.96;76.51
30598;BME280;17365;48.878;8.334;2022-12-31T06:06:35;99961.75;;;15.97;76.65
30598;BME280;17365;48.878;8.334;2022-12-31T06:09:00;99972.22;;;15.96;76.52
30598;BME280;17365;48.878;8.334;2022-12-31T06:11:26;99973.16;;;15.93;76.65
30598;BME280;17365;48.878;8.334;2022-12-31T06:13:51;99953.00;;;15.98;76.18
30598;BME280;17365;48.878;8.334;2022-12-31T06:16:17;99957.41;;;15.95;76.45
30598;BME280;17365;48.878;8.334;2022-12-31T06:18:42;99967.03;;;15.94;76.27
30598;BME280;17365;48.878;8.334;2022-12-31T06:21:07;99960.81;;;16.00;75.86
30598;BME280;17365;48.878;8.334;2022-12-31T06:23:32;99950.63;;;15.88;76.22
30598;BME280;17365;48.878;8.334;2022-12-31T06:26:03;99955.84;;;15.88;76.06
30598;BME280;17365;48.878;8.334;2022-12-31T06:28:28;99959.28;;;15.90;76.03
30598;BME280;17365;48.878;8.334;2022-12-31T06:31:05;99950.66;;;15.85;76.04
30598;BME280;17365;48.878;8.334;2022-12-31T06:33:30;99960.22;;;15.87;76.09
30598;BME280;17365;48.878;8.334;2022-12-31T06:36:00;99969.88;;;15.84;76.40
30598;BME280;17365;48.878;8.334;2022-12-31T06:38:27;99965.50;;;15.86;76.16
30598;BME280;17365;48.878;8.334;2022-12-31T06:40:53;99970.81;;;15.81;76.22
30598;BME280;17365;48.878;8.334;2022-12-31T06:43:18;99960.31;;;15.83;76.01
30598;BME280;17365;48.878;8.334;2022-12-31T06:45:44;99966.44;;;15.82;76.08
30598;BME280;17365;48.878;8.334;2022-12-31T06:48:09;99977.69;;;15.85;76.15
30598;BME280;17365;48.878;8.334;2022-12-31T06:50:35;99977.88;;;15.78;76.28
30598;BME280;17365;48.878;8.334;2022-12-31T06:53:00;99966.25;;;15.91;75.75
30598;BME280;17365;48.878;8.334;2022-12-31T06:55:26;99981.81;;;15.97;75.51
30598;BME280;17365;48.878;8.334;2022-12-31T06:57:51;99989.50;;;16.03;74.87
30598;BME280;17365;48.878;8.334;2022-12-31T07:00:17;99979.00;;;16.05;74.59
30598;BME280;17365;48.878;8.334;2022-12-31T07:05:26;99986.97;;;16.00;74.83
30598;BME280;17365;48.878;8.334;2022-12-31T07:10:41;99982.44;;;16.07;74.40
30598;BME280;17365;48.878;8.334;2022-12-31T07:21:34;99988.16;;;16.24;72.98
30598;BME280;17365;48.878;8.334;2022-12-31T07:24:00;99986.44;;;16.23;72.84
30598;BME280;17365;48.878;8.334;2022-12-31T07:32:24;100005.47;;;16.29;71.64
30598;BME280;17365;48.878;8.334;2022-12-31T07:43:35;100016.56;;;16.41;70.62
30598;BME280;17365;48.878;8.334;2022-12-31T07:46:18;100012.09;;;16.46;70.35
30598;BME280;17365;48.878;8.334;2022-12-31T07:48:46;100027.72;;;16.49;70.05
30598;BME280;17365;48.878;8.334;2022-12-31T07:51:12;100032.09;;;16.48;69.92
30598;BME280;17365;48.878;8.334;2022-12-31T07:53:37;100029.44;;;16.50;70.05
30598;BME280;17365;48.878;8.334;2022-12-31T07:56:04;100027.50;;;16.58;69.28
30598;BME280;17365;48.878;8.334;2022-12-31T08:01:11;100028.28;;;16.62;69.33
30598;BME280;17365;48.878;8.334;2022-12-31T08:09:45;100038.97;;;16.54;69.00
30598;BME280;17365;48.878;8.334;2022-12-31T08:12:13;100049.16;;;16.65;68.33
30598;BME280;17365;48.878;8.334;2022-12-31T08:14:44;100062.25;;;16.66;68.24
30598;BME280;17365;48.878;8.334;2022-12-31T08:17:14;100052.63;;;16.67;68.15
30598;BME280;17365;48.878;8.334;2022-12-31T08:19:41;100059.56;;;16.69;68.36
30598;BME280;17365;48.878;8.334;2022-12-31T08:22:29;100063.78;;;16.75;67.46
30598;BME280;17365;48.878;8.334;2022-12-31T08:28:37;100082.81;;;16.83;66.71
30598;BME280;17365;48.878;8.334;2022-12-31T08:34:21;100086.94;;;16.93;65.87
30598;BME280;17365;48.878;8.334;2022-12-31T08:36:59;100097.28;;;16.99;66.14
30598;BME280;17365;48.878;8.334;2022-12-31T08:39:38;100081.66;;;16.95;65.94
30598;BME280;17365;48.878;8.334;2022-12-31T08:50:19;100077.84;;;17.06;65.13
30598;BME280;17365;48.878;8.334;2022-12-31T08:52:46;100080.44;;;17.08;64.82
30598;BME280;17365;48.878;8.334;2022-12-31T08:55:15;100082.19;;;17.07;65.00
30598;BME280;17365;48.878;8.334;2022-12-31T09:00:17;100088.50;;;17.00;65.05
30598;BME280;17365;48.878;8.334;2022-12-31T09:05:59;100080.38;;;17.11;64.58
30598;BME280;17365;48.878;8.334;2022-12-31T09:11:28;100090.88;;;17.11;64.56
30598;BME280;17365;48.878;8.334;2022-12-31T09:14:12;100092.59;;;17.12;64.05
30598;BME280;17365;48.878;8.334;2022-12-31T09:16:50;100089.16;;;17.08;65.05
30598;BME280;17365;48.878;8.334;2022-12-31T09:19:19;100099.84;;;17.01;64.02
30598;BME280;17365;48.878;8.334;2022-12-31T09:21:44;100087.38;;;17.10;64.46
30598;BME280;17365;48.878;8.334;2022-12-31T09:24:12;100082.16;;;17.09;64.16
30598;BME280;17365;48.878;8.334;2022-12-31T09:31:55;100075.88;;;17.16;63.90
30598;BME280;17365;48.878;8.334;2022-12-31T09:34:36;100089.69;;;17.23;63.66
30598;BME280;17365;48.878;8.334;2022-12-31T09:37:15;100089.41;;;17.33;62.63
30598;BME280;17365;48.878;8.334;2022-12-31T09:39:44;100096.41;;;17.33;62.91
30598;BME280;17365;48.878;8.334;2022-12-31T09:42:39;100092.84;;;17.35;62.94
30598;BME280;17365;48.878;8.334;2022-12-31T09:50:48;100083.47;;;17.59;61.59
30598;BME280;17365;48.878;8.334;2022-12-31T09:53:55;100082.34;;;17.69;60.92
30598;BME280;17365;48.878;8.334;2022-12-31T09:56:34;100088.44;;;17.70;60.92
30598;BME280;17365;48.878;8.334;2022-12-31T10:01:53;100101.13;;;17.85;61.04
30598;BME280;17365;48.878;8.334;2022-12-31T10:04:27;100088.09;;;17.82;59.94
30598;BME280;17365;48.878;8.334;2022-12-31T10:10:21;100095.13;;;17.82;60.09
30598;BME280;17365;48.878;8.334;2022-12-31T10:15:56;100085.97;;;17.95;59.59
30598;BME280;17365;48.878;8.334;2022-12-31T10:18:35;100093.81;;;17.96;59.15
30598;BME280;17365;48.878;8.334;2022-12-31T10:26:29;100082.94;;;18.09;58.97
30598;BME280;17365;48.878;8.334;2022-12-31T10:35:18;100074.00;;;18.16;57.76
30598;BME280;17365;48.878;8.334;2022-12-31T10:37:57;100087.84;;;18.21;58.30
30598;BME280;17365;48.878;8.334;2022-12-31T10:40:45;100090.41;;;18.22;57.32
30598;BME280;17365;48.878;8.334;2022-12-31T11:19:03;100061.16;;;18.62;54.32
30598;BME280;17365;48.878;8.334;2022-12-31T11:21:55;100071.41;;;18.72;55.16
30598;BME280;17365;48.878;8.334;2022-12-31T11:24:42;100068.50;;;18.81;54.67
30598;BME280;17365;48.878;8.334;2022-12-31T11:33:23;100068.16;;;18.90;54.54
30598;BME280;17365;48.878;8.334;2022-12-31T11:36:32;100059.28;;;18.94;54.35
30598;BME280;17365;48.878;8.334;2022-12-31T11:41:52;100041.69;;;18.96;54.64
30598;BME280;17365;48.878;8.334;2022-12-31T11:44:45;100046.91;;;18.98;54.32
30598;BME280;17365;48.878;8.334;2022-12-31T11:58:24;100026.91;;;19.18;53.21
30598;BME280;17365;48.878;8.334;2022-12-31T12:01:01;100024.59;;;19.09;53.56
30598;BME280;17365;48.878;8.334;2022-12-31T12:03:29;100017.78;;;19.04;52.69
30598;BME280;17365;48.878;8.334;2022-12-31T12:05:56;100021.03;;;19.10;52.86
30598;BME280;17365;48.878;8.334;2022-12-31T12:08:23;100025.66;;;19.04;52.51
30598;BME280;17365;48.878;8.334;2022-12-31T12:10:52;100022.97;;;19.05;52.92
30598;BME280;17365;48.878;8.334;2022-12-31T12:13:23;100020.34;;;19.05;52.76
30598;BME280;17365;48.878;8.334;2022-12-31T12:15:51;100010.56;;;19.09;52.50
30598;BME280;17365;48.878;8.334;2022-12-31T12:18:43;100015.28;;;18.99;52.64
30598;BME280;17365;48.878;8.334;2022-12-31T12:21:20;100004.78;;;18.99;52.84
30598;BME280;17365;48.878;8.334;2022-12-31T12:23:57;100017.13;;;18.97;52.41
30598;BME280;17365;48.878;8.334;2022-12-31T12:26:37;100019.69;;;18.99;52.31
30598;BME280;17365;48.878;8.334;2022-12-31T12:29:14;100016.19;;;18.98;52.31
30598;BME280;17365;48.878;8.334;2022-12-31T12:31:40;100020.03;;;19.14;52.37
30598;BME280;17365;48.878;8.334;2022-12-31T12:34:21;100021.03;;;19.10;52.44
30598;BME280;17365;48.878;8.334;2022-12-31T12:36:46;100021.91;;;19.11;52.44
30598;BME280;17365;48.878;8.334;2022-12-31T12:39:20;100019.38;;;19.08;51.78
30598;BME280;17365;48.878;8.334;2022-12-31T12:41:46;100012.34;;;19.08;52.52
30598;BME280;17365;48.878;8.334;2022-12-31T12:44:14;100014.72;;;19.16;51.90
30598;BME280;17365;48.878;8.334;2022-12-31T12:46:45;100022.66;;;19.14;52.53
30598;BME280;17365;48.878;8.334;2022-12-31T12:49:21;100011.81;;;19.24;51.90
30598;BME280;17365;48.878;8.334;2022-12-31T12:52:02;100005.00;;;19.18;51.65
30598;BME280;17365;48.878;8.334;2022-12-31T12:55:01;100003.22;;;19.18;51.64
30598;BME280;17365;48.878;8.334;2022-12-31T13:00:21;99988.69;;;19.08;51.58
30598;BME280;17365;48.878;8.334;2022-12-31T13:05:44;99977.19;;;19.11;51.59
30598;BME280;17365;48.878;8.334;2022-12-31T13:08:17;99984.97;;;19.14;51.88
30598;BME280;17365;48.878;8.334;2022-12-31T13:19:46;99981.78;;;19.06;52.05
30598;BME280;17365;48.878;8.334;2022-12-31T13:22:29;99987.22;;;19.00;52.19
30598;BME280;17365;48.878;8.334;2022-12-31T13:25:20;99987.16;;;19.01;52.19
30598;BME280;17365;48.878;8.334;2022-12-31T13:27:50;99987.16;;;19.03;51.96
30598;BME280;17365;48.878;8.334;2022-12-31T13:30:22;99988.84;;;19.04;51.73
30598;BME280;17365;48.878;8.334;2022-12-31T13:33:13;99986.25;;;19.02;51.77
30598;BME280;17365;48.878;8.334;2022-12-31T13:35:48;99986.44;;;18.98;51.91
30598;BME280;17365;48.878;8.334;2022-12-31T13:38:42;99982.81;;;19.00;51.99
30598;BME280;17365;48.878;8.334;2022-12-31T13:44:15;99981.28;;;18.95;52.02
30598;BME280;17365;48.878;8.334;2022-12-31T13:46:51;99975.00;;;18.99;51.95
30598;BME280;17365;48.878;8.334;2022-12-31T13:49:42;99981.41;;;18.92;52.21
30598;BME280;17365;48.878;8.334;2022-12-31T13:52:39;99978.78;;;18.90;51.97
30598;BME280;17365;48.878;8.334;2022-12-31T13:55:20;99974.25;;;18.95;51.48
30598;BME280;17365;48.878;8.334;2022-12-31T13:57:51;99968.19;;;18.93;51.45
30598;BME280;17365;48.878;8.334;2022-12-31T14:00:23;99972.47;;;18.96;51.59
30598;BME280;17365;48.878;8.334;2022-12-31T14:02:58;99977.88;;;18.91;51.39
30598;BME280;17365;48.878;8.334;2022-12-31T14:08:07;99970.81;;;18.93;52.02
30598;BME280;17365;48.878;8.334;2022-12-31T14:10:39;99982.50;;;18.84;51.40
30598;BME280;17365;48.878;8.334;2022-12-31T14:18:59;99973.09;;;18.77;51.86
30598;BME280;17365;48.878;8.334;2022-12-31T14:21:42;99982.06;;;18.72;52.05
30598;BME280;17365;48.878;8.334;2022-12-31T14:26:54;99985.66;;;18.69;51.80
30598;BME280;17365;48.878;8.334;2022-12-31T14:29:34;99995.41;;;18.66;51.77
30598;BME280;17365;48.878;8.334;2022-12-31T14:37:53;99996.63;;;18.54;52.53
30598;BME280;17365;48.878;8.334;2022-12-31T14:48:31;99992.75;;;18.39;52.54
30598;BME280;17365;48.878;8.334;2022-12-31T14:51:00;99984.06;;;18.37;52.56
30598;BME280;17365;48.878;8.334;2022-12-31T14:53:27;99989.50;;;18.31;52.95
30598;BME280;17365;48.878;8.334;2022-12-31T14:56:05;99991.81;;;18.40;52.31
30598;BME280;17365;48.878;8.334;2022-12-31T14:58:33;99995.31;;;18.41;52.08
30598;BME280;17365;48.878;8.334;2022-12-31T15:03:43;99983.25;;;18.35;52.58
30598;BME280;17365;48.878;8.334;2022-12-31T15:11:41;99983.53;;;18.26;52.47
30598;BME280;17365;48.878;8.334;2022-12-31T15:20:09;99975.56;;;18.29;52.63
30598;BME280;17365;48.878;8.334;2022-12-31T15:22:48;99975.94;;;18.17;52.93
30598;BME280;17365;48.878;8.334;2022-12-31T15:25:32;99984.69;;;18.17;52.47
30598;BME280;17365;48.878;8.334;2022-12-31T15:28:00;99974.19;;;18.17;52.79
30598;BME280;17365;48.878;8.334;2022-12-31T15:33:02;99981.34;;;18.12;52.83
30598;BME280;17365;48.878;8.334;2022-12-31T15:35:31;99981.38;;;18.11;53.04
30598;BME280;17365;48.878;8.334;2022-12-31T15:40:46;99987.34;;;18.16;52.64
30598;BME280;17365;48.878;8.334;2022-12-31T15:43:16;99995.06;;;18.20;52.31
30598;BME280;17365;48.878;8.334;2022-12-31T15:45:42;99987.34;;;18.16;52.84
30598;BME280;17365;48.878;8.334;2022-12-31T15:48:14;99996.22;;;18.12;52.84
30598;BME280;17365;48.878;8.334;2022-12-31T15:50:40;100000.00;;;18.03;53.21
30598;BME280;17365;48.878;8.334;2022-12-31T15:53:07;99997.22;;;18.08;52.85
30598;BME280;17365;48.878;8.334;2022-12-31T15:55:41;100001.44;;;18.13;52.58
30598;BME280;17365;48.878;8.334;2022-12-31T15:58:14;100000.66;;;18.10;52.70
30598;BME280;17365;48.878;8.334;2022-12-31T16:01:02;100006.19;;;18.00;53.11
30598;BME280;17365;48.878;8.334;2022-12-31T16:03:31;100005.91;;;18.10;52.94
30598;BME280;17365;48.878;8.334;2022-12-31T16:06:11;100020.16;;;18.02;52.96
30598;BME280;17365;48.878;8.334;2022-12-31T16:08:39;100021.88;;;18.03;52.81
30598;BME280;17365;48.878;8.334;2022-12-31T16:11:08;100020.03;;;18.06;52.82
30598;BME280;17365;48.878;8.334;2022-12-31T16:13:36;100022.84;;;17.99;53.41
30598;BME280;17365;48.878;8.334;2022-12-31T16:16:06;100025.66;;;17.93;53.48
30598;BME280;17365;48.878;8.334;2022-12-31T16:18:36;100019.66;;;17.90;53.35
30598;BME280;17365;48.878;8.334;2022-12-31T16:21:02;100036.28;;;17.89;53.63
30598;BME280;17365;48.878;8.334;2022-12-31T16:23:28;100042.53;;;17.85;54.00
30598;BME280;17365;48.878;8.334;2022-12-31T16:25:56;100049.00;;;17.73;54.36
30598;BME280;17365;48.878;8.334;2022-12-31T16:28:28;100047.38;;;17.67;54.56
30598;BME280;17365;48.878;8.334;2022-12-31T16:31:01;100052.84;;;17.60;54.90
30598;BME280;17365;48.878;8.334;2022-12-31T16:33:27;100050.88;;;17.66;54.11
30598;BME280;17365;48.878;8.334;2022-12-31T16:35:56;100060.50;;;17.67;54.41
30598;BME280;17365;48.878;8.334;2022-12-31T16:38:22;100064.91;;;17.67;54.26
30598;BME280;17365;48.878;8.334;2022-12-31T16:45:55;100060.19;;;17.80;53.74
30598;BME280;17365;48.878;8.334;2022-12-31T16:48:21;100061.81;;;17.84;53.64
30598;BME280;17365;48.878;8.334;2022-12-31T16:50:52;100063.69;;;17.80;53.52
30598;BME280;17365;48.878;8.334;2022-12-31T16:53:20;100060.50;;;17.98;53.00
30598;BME280;17365;48.878;8.334;2022-12-31T16:55:57;100063.28;;;17.94;53.17
30598;BME280;17365;48.878;8.334;2022-12-31T16:58:29;100065.25;;;17.86;53.21
30598;BME280;17365;48.878;8.334;2022-12-31T17:01:21;100069.00;;;17.77;53.85
30598;BME280;17365;48.878;8.334;2022-12-31T17:03:53;100064.75;;;17.73;53.97
30598;BME280;17365;48.878;8.334;2022-12-31T17:06:21;100068.28;;;17.72;53.93
30598;BME280;17365;48.878;8.334;2022-12-31T17:11:22;100061.72;;;17.56;54.98
30598;BME280;17365;48.878;8.334;2022-12-31T17:14:14;100066.44;;;17.41;55.83
30598;BME280;17365;48.878;8.334;2022-12-31T17:16:44;100057.97;;;17.32;56.23
30598;BME280;17365;48.878;8.334;2022-12-31T17:19:43;100066.25;;;17.16;56.55